sensor_id;sensor_type;location;lat;lon;timestamp;P1;durP1;ratioP1;P2;durP2;ratioP2
22103;SDS011;11218;48.886;9.426;2023-06-22T00:00:41;660.88;;;325.45;;
22103;SDS011;11218;48.886;9.426;2023-06-22T00:03:10;654.05;;;314.25;;
22103;SDS011;11218;48.886;9.426;2023-06-22T00:05:41;656.67;;;323.92;;
22103;SDS011;11218;48.886;9.426;2023-06-22T00:08:09;641.03;;;310.13;;
22103;SDS011;11218;48.886;9.426;2023-06-22T00:10:38;653.60;;;326.35;;
22103;SDS011;11218;48.886;9.426;2023-06-22T00:13:07;662.28;;;325.23;;
22103;SDS011;11218;48.886;9.426;2023-06-22T00:15:38;651.65;;;318.83;;
22103;SDS011;11218;48.886;9.426;2023-06-22T00:18:08;652.88;;;319.98;;
22103;SDS011;11218;48.886;9.426;2023-06-22T00:20:38;662.60;;;321.75;;
22103;SDS011;11218;48.886;9.426;2023-06-22T00:23:08;668.10;;;338.13;;
22103;SDS011;11218;48.886;9.426;2023-06-22T00:25:38;673.00;;;337.40;;
22103;SDS011;11218;48.886;9.426;2023-06-22T00:28:07;668.05;;;328.85;;
22103;SDS011;11218;48.886;9.426;2023-06-22T00:30:36;667.50;;;334.27;;
22103;SDS011;11218;48.886;9.426;2023-06-22T00:33:04;666.08;;;320.10;;
22103;SDS011;11218;48.886;9.426;2023-06-22T00:35:34;657.22;;;315.88;;
22103;SDS011;11218;48.886;9.426;2023-06-22T00:38:03;653.65;;;316.92;;
22103;SDS011;11218;48.886;9.426;2023-06-22T00:40:33;674.28;;;326.55;;
22103;SDS011;11218;48.886;9.426;2023-06-22T00:43:02;675.47;;;332.13;;
22103;SDS011;11218;48.886;9.426;2023-06-22T00:45:32;688.30;;;336.02;;
22103;SDS011;11218;48.886;9.426;2023-06-22T00:48:02;689.58;;;345.00;;
22103;SDS011;11218;48.886;9.426;2023-06-22T00:50:31;697.20;;;339.70;;
22103;SDS011;11218;48.886;9.426;2023-06-22T00:53:03;689.25;;;342.45;;
22103;SDS011;11218;48.886;9.426;2023-06-22T00:55:37;683.97;;;339.50;;
22103;SDS011;11218;48.886;9.426;2023-06-22T00:58:10;685.92;;;341.80;;
22103;SDS011;11218;48.886;9.426;2023-06-22T01:00:39;669.72;;;317.27;;
22103;SDS011;11218;48.886;9.426;2023-06-22T01:03:08;661.33;;;316.10;;
22103;SDS011;11218;48.886;9.426;2023-06-22T01:05:38;648.17;;;300.27;;
22103;SDS011;11218;48.886;9.426;2023-06-22T01:08:20;621.15;;;278.80;;
22103;SDS011;11218;48.886;9.426;2023-06-22T01:11:01;593.38;;;260.17;;
22103;SDS011;11218;48.886;9.426;2023-06-22T01:13:37;599.13;;;263.35;;
22103;SDS011;11218;48.886;9.426;2023-06-22T01:16:12;622.25;;;281.08;;
22103;SDS011;11218;48.886;9.426;2023-06-22T01:18:45;646.40;;;294.63;;
22103;SDS011;11218;48.886;9.426;2023-06-22T01:21:16;660.83;;;305.30;;
22103;SDS011;11218;48.886;9.426;2023-06-22T01:23:51;658.25;;;301.73;;
22103;SDS011;11218;48.886;9.426;2023-06-22T01:26:36;665.63;;;306.73;;
22103;SDS011;11218;48.886;9.426;2023-06-22T01:29:10;669.45;;;306.92;;
22103;SDS011;11218;48.886;9.426;2023-06-22T01:31:41;668.97;;;311.08;;
22103;SDS011;11218;48.886;9.426;2023-06-22T01:34:14;669.38;;;311.10;;
22103;SDS011;11218;48.886;9.426;2023-06-22T01:36:44;668.05;;;310.23;;
22103;SDS011;11218;48.886;9.426;2023-06-22T01:39:14;676.42;;;310.95;;
22103;SDS011;11218;48.886;9.426;2023-06-22T01:41:44;678.22;;;321.02;;
22103;SDS011;11218;48.886;9.426;2023-06-22T01:44:14;680.65;;;325.25;;
22103;SDS011;11218;48.886;9.426;2023-06-22T01:46:44;672.55;;;312.08;;
22103;SDS011;11218;48.886;9.426;2023-06-22T01:49:14;674.75;;;317.75;;
22103;SDS011;11218;48.886;9.426;2023-06-22T01:51:43;667.00;;;309.08;;
22103;SDS011;11218;48.886;9.426;2023-06-22T01:54:12;675.95;;;317.98;;
22103;SDS011;11218;48.886;9.426;2023-06-22T01:56:40;672.67;;;312.35;;
22103;SDS011;11218;48.886;9.426;2023-06-22T01:59:11;650.75;;;300.75;;
22103;SDS011;11218;48.886;9.426;2023-06-22T02:01:49;667.50;;;307.58;;
22103;SDS011;11218;48.886;9.426;2023-06-22T02:04:24;675.30;;;317.08;;
22103;SDS011;11218;48.886;9.426;2023-06-22T02:06:56;665.65;;;310.08;;
22103;SDS011;11218;48.886;9.426;2023-06-22T02:09:29;670.28;;;304.48;;
22103;SDS011;11218;48.886;9.426;2023-06-22T02:11:59;660.33;;;301.45;;
22103;SDS011;11218;48.886;9.426;2023-06-22T02:14:30;676.97;;;307.40;;
22103;SDS011;11218;48.886;9.426;2023-06-22T02:17:01;667.03;;;310.92;;
22103;SDS011;11218;48.886;9.426;2023-06-22T02:19:31;673.03;;;316.00;;
22103;SDS011;11218;48.886;9.426;2023-06-22T02:22:01;664.45;;;301.85;;
22103;SDS011;11218;48.886;9.426;2023-06-22T02:24:30;668.35;;;306.63;;
22103;SDS011;11218;48.886;9.426;2023-06-22T02:27:00;665.28;;;308.73;;
22103;SDS011;11218;48.886;9.426;2023-06-22T02:29:29;678.40;;;311.70;;
22103;SDS011;11218;48.886;9.426;2023-06-22T02:31:58;670.92;;;309.92;;
22103;SDS011;11218;48.886;9.426;2023-06-22T02:34:28;682.25;;;316.05;;
22103;SDS011;11218;48.886;9.426;2023-06-22T02:36:57;669.65;;;308.42;;
22103;SDS011;11218;48.886;9.426;2023-06-22T02:39:27;676.78;;;312.27;;
22103;SDS011;11218;48.886;9.426;2023-06-22T02:41:57;673.75;;;313.75;;
22103;SDS011;11218;48.886;9.426;2023-06-22T02:44:26;672.60;;;312.63;;
22103;SDS011;11218;48.886;9.426;2023-06-22T02:46:55;677.55;;;318.65;;
22103;SDS011;11218;48.886;9.426;2023-06-22T02:49:23;675.38;;;311.35;;
22103;SDS011;11218;48.886;9.426;2023-06-22T02:51:54;669.33;;;304.85;;
22103;SDS011;11218;48.886;9.426;2023-06-22T02:54:23;676.85;;;312.63;;
22103;SDS011;11218;48.886;9.426;2023-06-22T02:56:52;691.78;;;318.00;;
22103;SDS011;11218;48.886;9.426;2023-06-22T02:59:20;669.83;;;304.20;;
22103;SDS011;11218;48.886;9.426;2023-06-22T03:01:50;668.33;;;304.10;;
22103;SDS011;11218;48.886;9.426;2023-06-22T03:04:19;666.78;;;311.13;;
22103;SDS011;11218;48.886;9.426;2023-06-22T03:06:47;666.08;;;306.90;;
22103;SDS011;11218;48.886;9.426;2023-06-22T03:09:19;662.40;;;299.95;;
22103;SDS011;11218;48.886;9.426;2023-06-22T03:11:48;664.88;;;305.83;;
22103;SDS011;11218;48.886;9.426;2023-06-22T03:14:16;663.50;;;300.40;;
22103;SDS011;11218;48.886;9.426;2023-06-22T03:16:45;659.25;;;298.35;;
22103;SDS011;11218;48.886;9.426;2023-06-22T03:19:14;666.95;;;301.65;;
22103;SDS011;11218;48.886;9.426;2023-06-22T03:21:43;567.63;;;235.70;;
22103;SDS011;11218;48.886;9.426;2023-06-22T03:24:11;608.90;;;263.73;;
22103;SDS011;11218;48.886;9.426;2023-06-22T03:26:41;655.00;;;293.92;;
22103;SDS011;11218;48.886;9.426;2023-06-22T03:29:13;654.40;;;289.77;;
22103;SDS011;11218;48.886;9.426;2023-06-22T03:31:42;657.25;;;294.30;;
22103;SDS011;11218;48.886;9.426;2023-06-22T03:34:10;670.05;;;303.58;;
22103;SDS011;11218;48.886;9.426;2023-06-22T03:36:39;669.30;;;305.30;;
22103;SDS011;11218;48.886;9.426;2023-06-22T03:39:11;662.85;;;299.70;;
22103;SDS011;11218;48.886;9.426;2023-06-22T03:41:42;670.40;;;301.73;;
22103;SDS011;11218;48.886;9.426;2023-06-22T03:44:11;665.47;;;297.98;;
22103;SDS011;11218;48.886;9.426;2023-06-22T03:46:39;670.72;;;295.25;;
22103;SDS011;11218;48.886;9.426;2023-06-22T03:49:08;675.08;;;313.35;;
22103;SDS011;11218;48.886;9.426;2023-06-22T03:51:36;679.30;;;303.80;;
22103;SDS011;11218;48.886;9.426;2023-06-22T03:54:05;671.97;;;305.40;;
22103;SDS011;11218;48.886;9.426;2023-06-22T03:56:33;675.45;;;305.75;;
22103;SDS011;11218;48.886;9.426;2023-06-22T03:59:04;674.92;;;309.90;;
22103;SDS011;11218;48.886;9.426;2023-06-22T04:01:32;668.83;;;304.83;;
22103;SDS011;11218;48.886;9.426;2023-06-22T04:04:01;659.20;;;291.98;;
22103;SDS011;11218;48.886;9.426;2023-06-22T04:06:30;673.25;;;298.85;;
22103;SDS011;11218;48.886;9.426;2023-06-22T04:08:58;660.88;;;294.15;;
22103;SDS011;11218;48.886;9.426;2023-06-22T04:11:27;661.80;;;296.08;;
22103;SDS011;11218;48.886;9.426;2023-06-22T04:13:56;671.83;;;303.98;;
22103;SDS011;11218;48.886;9.426;2023-06-22T04:16:26;670.65;;;308.65;;
22103;SDS011;11218;48.886;9.426;2023-06-22T04:18:55;658.72;;;296.70;;
22103;SDS011;11218;48.886;9.426;2023-06-22T04:21:24;661.92;;;300.15;;
22103;SDS011;11218;48.886;9.426;2023-06-22T04:23:53;656.22;;;301.35;;
22103;SDS011;11218;48.886;9.426;2023-06-22T04:26:22;658.90;;;301.92;;
22103;SDS011;11218;48.886;9.426;2023-06-22T04:28:50;659.92;;;297.98;;
22103;SDS011;11218;48.886;9.426;2023-06-22T04:31:22;660.35;;;308.30;;
22103;SDS011;11218;48.886;9.426;2023-06-22T04:34:00;656.03;;;294.35;;
22103;SDS011;11218;48.886;9.426;2023-06-22T04:36:34;664.53;;;301.85;;
22103;SDS011;11218;48.886;9.426;2023-06-22T04:39:08;655.88;;;301.83;;
22103;SDS011;11218;48.886;9.426;2023-06-22T04:41:38;653.17;;;304.42;;
22103;SDS011;11218;48.886;9.426;2023-06-22T04:44:11;649.70;;;297.55;;
22103;SDS011;11218;48.886;9.426;2023-06-22T04:46:40;653.53;;;296.35;;
22103;SDS011;11218;48.886;9.426;2023-06-22T04:49:10;652.22;;;293.00;;
22103;SDS011;11218;48.886;9.426;2023-06-22T04:51:39;658.25;;;300.05;;
22103;SDS011;11218;48.886;9.426;2023-06-22T04:54:09;650.88;;;299.33;;
22103;SDS011;11218;48.886;9.426;2023-06-22T04:56:38;667.40;;;307.70;;
22103;SDS011;11218;48.886;9.426;2023-06-22T04:59:07;660.15;;;303.88;;
22103;SDS011;11218;48.886;9.426;2023-06-22T05:01:40;653.42;;;302.42;;
22103;SDS011;11218;48.886;9.426;2023-06-22T05:04:08;634.45;;;280.63;;
22103;SDS011;11218;48.886;9.426;2023-06-22T05:06:39;658.55;;;297.30;;
22103;SDS011;11218;48.886;9.426;2023-06-22T05:09:08;657.80;;;308.52;;
22103;SDS011;11218;48.886;9.426;2023-06-22T05:11:38;650.35;;;299.65;;
22103;SDS011;11218;48.886;9.426;2023-06-22T05:14:07;620.40;;;274.67;;
22103;SDS011;11218;48.886;9.426;2023-06-22T05:16:36;636.70;;;283.38;;
22103;SDS011;11218;48.886;9.426;2023-06-22T05:19:04;627.20;;;277.58;;
22103;SDS011;11218;48.886;9.426;2023-06-22T05:21:35;632.40;;;283.00;;
22103;SDS011;11218;48.886;9.426;2023-06-22T05:24:04;625.22;;;276.85;;
22103;SDS011;11218;48.886;9.426;2023-06-22T05:26:34;651.92;;;298.38;;
22103;SDS011;11218;48.886;9.426;2023-06-22T05:29:02;645.13;;;291.90;;
22103;SDS011;11218;48.886;9.426;2023-06-22T05:31:31;629.90;;;285.27;;
22103;SDS011;11218;48.886;9.426;2023-06-22T05:34:00;624.25;;;280.58;;
22103;SDS011;11218;48.886;9.426;2023-06-22T05:36:29;634.78;;;287.67;;
22103;SDS011;11218;48.886;9.426;2023-06-22T05:38:59;625.47;;;287.65;;
22103;SDS011;11218;48.886;9.426;2023-06-22T05:41:40;637.33;;;292.73;;
22103;SDS011;11218;48.886;9.426;2023-06-22T05:44:09;626.10;;;286.65;;
22103;SDS011;11218;48.886;9.426;2023-06-22T05:46:40;621.38;;;278.50;;
22103;SDS011;11218;48.886;9.426;2023-06-22T05:49:11;602.03;;;271.08;;
22103;SDS011;11218;48.886;9.426;2023-06-22T05:51:40;607.83;;;268.67;;
22103;SDS011;11218;48.886;9.426;2023-06-22T05:54:10;608.63;;;274.63;;
22103;SDS011;11218;48.886;9.426;2023-06-22T05:56:40;620.72;;;283.15;;
22103;SDS011;11218;48.886;9.426;2023-06-22T05:59:09;648.45;;;298.58;;
22103;SDS011;11218;48.886;9.426;2023-06-22T06:01:37;657.08;;;308.30;;
22103;SDS011;11218;48.886;9.426;2023-06-22T06:04:07;663.13;;;314.75;;
22103;SDS011;11218;48.886;9.426;2023-06-22T06:06:36;672.85;;;320.02;;
22103;SDS011;11218;48.886;9.426;2023-06-22T06:09:05;665.03;;;319.95;;
22103;SDS011;11218;48.886;9.426;2023-06-22T06:11:35;658.13;;;309.70;;
22103;SDS011;11218;48.886;9.426;2023-06-22T06:14:04;652.17;;;315.00;;
22103;SDS011;11218;48.886;9.426;2023-06-22T06:16:33;641.88;;;310.52;;
22103;SDS011;11218;48.886;9.426;2023-06-22T06:19:01;636.88;;;293.92;;
22103;SDS011;11218;48.886;9.426;2023-06-22T06:21:30;639.95;;;299.10;;
22103;SDS011;11218;48.886;9.426;2023-06-22T06:23:59;646.45;;;305.67;;
22103;SDS011;11218;48.886;9.426;2023-06-22T06:26:28;663.10;;;318.35;;
22103;SDS011;11218;48.886;9.426;2023-06-22T06:29:01;654.08;;;312.05;;
22103;SDS011;11218;48.886;9.426;2023-06-22T06:31:30;650.75;;;315.23;;
22103;SDS011;11218;48.886;9.426;2023-06-22T06:33:58;639.70;;;303.45;;
22103;SDS011;11218;48.886;9.426;2023-06-22T06:36:28;651.53;;;321.25;;
22103;SDS011;11218;48.886;9.426;2023-06-22T06:38:56;644.35;;;310.80;;
22103;SDS011;11218;48.886;9.426;2023-06-22T06:41:25;642.63;;;307.35;;
22103;SDS011;11218;48.886;9.426;2023-06-22T06:43:54;643.45;;;306.80;;
22103;SDS011;11218;48.886;9.426;2023-06-22T06:46:24;640.20;;;308.75;;
22103;SDS011;11218;48.886;9.426;2023-06-22T06:48:52;641.75;;;307.50;;
22103;SDS011;11218;48.886;9.426;2023-06-22T06:51:21;649.88;;;312.58;;
22103;SDS011;11218;48.886;9.426;2023-06-22T06:53:50;642.90;;;313.10;;
22103;SDS011;11218;48.886;9.426;2023-06-22T06:56:18;653.30;;;316.65;;
22103;SDS011;11218;48.886;9.426;2023-06-22T06:58:49;666.72;;;327.42;;
22103;SDS011;11218;48.886;9.426;2023-06-22T07:01:18;661.58;;;331.50;;
22103;SDS011;11218;48.886;9.426;2023-06-22T07:03:49;665.70;;;327.27;;
22103;SDS011;11218;48.886;9.426;2023-06-22T07:06:18;650.17;;;321.85;;
22103;SDS011;11218;48.886;9.426;2023-06-22T07:08:46;641.33;;;309.85;;
22103;SDS011;11218;48.886;9.426;2023-06-22T07:11:16;628.92;;;302.73;;
22103;SDS011;11218;48.886;9.426;2023-06-22T07:13:44;668.20;;;327.17;;
22103;SDS011;11218;48.886;9.426;2023-06-22T07:16:13;641.80;;;308.27;;
22103;SDS011;11218;48.886;9.426;2023-06-22T07:18:41;675.08;;;336.35;;
22103;SDS011;11218;48.886;9.426;2023-06-22T07:21:11;664.15;;;338.70;;
22103;SDS011;11218;48.886;9.426;2023-06-22T07:23:40;663.28;;;337.23;;
22103;SDS011;11218;48.886;9.426;2023-06-22T07:26:09;659.28;;;339.35;;
22103;SDS011;11218;48.886;9.426;2023-06-22T07:28:39;665.40;;;340.92;;
22103;SDS011;11218;48.886;9.426;2023-06-22T07:31:08;662.10;;;334.90;;
22103;SDS011;11218;48.886;9.426;2023-06-22T07:33:36;659.10;;;336.88;;
22103;SDS011;11218;48.886;9.426;2023-06-22T07:36:05;652.88;;;341.95;;
22103;SDS011;11218;48.886;9.426;2023-06-22T07:38:36;660.50;;;340.25;;
22103;SDS011;11218;48.886;9.426;2023-06-22T07:41:05;654.55;;;342.85;;
22103;SDS011;11218;48.886;9.426;2023-06-22T07:43:33;655.78;;;343.50;;
22103;SDS011;11218;48.886;9.426;2023-06-22T07:46:03;648.10;;;337.23;;
22103;SDS011;11218;48.886;9.426;2023-06-22T07:48:32;647.85;;;344.15;;
22103;SDS011;11218;48.886;9.426;2023-06-22T07:51:00;609.45;;;306.23;;
22103;SDS011;11218;48.886;9.426;2023-06-22T07:53:29;621.33;;;317.42;;
22103;SDS011;11218;48.886;9.426;2023-06-22T07:55:59;655.55;;;348.80;;
22103;SDS011;11218;48.886;9.426;2023-06-22T07:58:33;658.90;;;353.30;;
22103;SDS011;11218;48.886;9.426;2023-06-22T08:01:02;678.08;;;370.33;;
22103;SDS011;11218;48.886;9.426;2023-06-22T08:03:32;667.05;;;374.75;;
22103;SDS011;11218;48.886;9.426;2023-06-22T08:06:01;650.05;;;362.88;;
22103;SDS011;11218;48.886;9.426;2023-06-22T08:08:29;651.95;;;367.60;;
22103;SDS011;11218;48.886;9.426;2023-06-22T08:11:00;662.83;;;364.65;;
22103;SDS011;11218;48.886;9.426;2023-06-22T08:13:29;668.33;;;379.20;;
22103;SDS011;11218;48.886;9.426;2023-06-22T08:15:57;659.00;;;377.20;;
22103;SDS011;11218;48.886;9.426;2023-06-22T08:18:26;665.15;;;383.45;;
22103;SDS011;11218;48.886;9.426;2023-06-22T08:20:55;671.90;;;393.92;;
22103;SDS011;11218;48.886;9.426;2023-06-22T08:23:23;669.05;;;383.42;;
22103;SDS011;11218;48.886;9.426;2023-06-22T08:25:52;669.10;;;382.23;;
22103;SDS011;11218;48.886;9.426;2023-06-22T08:28:22;651.63;;;374.10;;
22103;SDS011;11218;48.886;9.426;2023-06-22T08:30:51;659.95;;;381.27;;
22103;SDS011;11218;48.886;9.426;2023-06-22T08:33:20;651.90;;;379.90;;
22103;SDS011;11218;48.886;9.426;2023-06-22T08:35:53;659.78;;;384.92;;
22103;SDS011;11218;48.886;9.426;2023-06-22T08:38:23;649.53;;;383.77;;
22103;SDS011;11218;48.886;9.426;2023-06-22T08:40:51;644.63;;;381.02;;
22103;SDS011;11218;48.886;9.426;2023-06-22T08:43:22;643.90;;;382.67;;
22103;SDS011;11218;48.886;9.426;2023-06-22T08:45:51;646.33;;;377.20;;
22103;SDS011;11218;48.886;9.426;2023-06-22T08:48:20;651.33;;;384.92;;
22103;SDS011;11218;48.886;9.426;2023-06-22T08:50:49;638.70;;;361.50;;
22103;SDS011;11218;48.886;9.426;2023-06-22T08:53:17;631.20;;;367.92;;
22103;SDS011;11218;48.886;9.426;2023-06-22T08:55:46;645.95;;;383.33;;
22103;SDS011;11218;48.886;9.426;2023-06-22T08:58:15;638.75;;;383.65;;
22103;SDS011;11218;48.886;9.426;2023-06-22T09:00:46;657.00;;;409.30;;
22103;SDS011;11218;48.886;9.426;2023-06-22T09:03:15;634.75;;;378.50;;
22103;SDS011;11218;48.886;9.426;2023-06-22T09:05:44;640.00;;;384.42;;
22103;SDS011;11218;48.886;9.426;2023-06-22T09:08:13;641.78;;;389.48;;
22103;SDS011;11218;48.886;9.426;2023-06-22T09:10:41;646.78;;;397.38;;
22103;SDS011;11218;48.886;9.426;2023-06-22T09:13:10;654.45;;;417.67;;
22103;SDS011;11218;48.886;9.426;2023-06-22T09:15:39;642.65;;;382.60;;
22103;SDS011;11218;48.886;9.426;2023-06-22T09:18:11;649.95;;;398.05;;
22103;SDS011;11218;48.886;9.426;2023-06-22T09:20:41;646.78;;;393.20;;
22103;SDS011;11218;48.886;9.426;2023-06-22T09:23:09;630.53;;;372.08;;
22103;SDS011;11218;48.886;9.426;2023-06-22T09:25:38;606.80;;;346.10;;
22103;SDS011;11218;48.886;9.426;2023-06-22T09:28:07;615.30;;;357.60;;
22103;SDS011;11218;48.886;9.426;2023-06-22T09:30:35;633.28;;;374.95;;
22103;SDS011;11218;48.886;9.426;2023-06-22T09:33:03;645.72;;;391.02;;
22103;SDS011;11218;48.886;9.426;2023-06-22T09:35:33;652.45;;;413.25;;
22103;SDS011;11218;48.886;9.426;2023-06-22T09:38:01;655.10;;;414.20;;
22103;SDS011;11218;48.886;9.426;2023-06-22T09:40:29;659.45;;;416.00;;
22103;SDS011;11218;48.886;9.426;2023-06-22T09:42:59;672.50;;;430.85;;
22103;SDS011;11218;48.886;9.426;2023-06-22T09:45:27;671.30;;;434.38;;
22103;SDS011;11218;48.886;9.426;2023-06-22T09:47:55;685.03;;;456.98;;
22103;SDS011;11218;48.886;9.426;2023-06-22T09:50:23;675.03;;;432.67;;
22103;SDS011;11218;48.886;9.426;2023-06-22T09:52:53;669.33;;;431.30;;
22103;SDS011;11218;48.886;9.426;2023-06-22T09:55:22;665.50;;;431.77;;
22103;SDS011;11218;48.886;9.426;2023-06-22T09:57:50;667.88;;;431.30;;
22103;SDS011;11218;48.886;9.426;2023-06-22T10:00:18;668.92;;;428.25;;
22103;SDS011;11218;48.886;9.426;2023-06-22T10:02:46;678.03;;;459.30;;
22103;SDS011;11218;48.886;9.426;2023-06-22T10:05:15;673.55;;;446.67;;
22103;SDS011;11218;48.886;9.426;2023-06-22T10:07:43;680.47;;;465.75;;
22103;SDS011;11218;48.886;9.426;2023-06-22T10:10:14;681.33;;;464.50;;
22103;SDS011;11218;48.886;9.426;2023-06-22T10:12:45;670.78;;;445.60;;
22103;SDS011;11218;48.886;9.426;2023-06-22T10:15:14;667.58;;;434.98;;
22103;SDS011;11218;48.886;9.426;2023-06-22T10:17:43;665.47;;;445.73;;
22103;SDS011;11218;48.886;9.426;2023-06-22T10:20:11;664.33;;;447.85;;
22103;SDS011;11218;48.886;9.426;2023-06-22T10:22:42;683.38;;;455.75;;
22103;SDS011;11218;48.886;9.426;2023-06-22T10:25:13;671.78;;;443.50;;
22103;SDS011;11218;48.886;9.426;2023-06-22T10:27:42;686.72;;;484.52;;
22103;SDS011;11218;48.886;9.426;2023-06-22T10:30:11;682.15;;;465.83;;
22103;SDS011;11218;48.886;9.426;2023-06-22T10:32:40;683.17;;;474.63;;
22103;SDS011;11218;48.886;9.426;2023-06-22T10:35:10;676.13;;;446.92;;
22103;SDS011;11218;48.886;9.426;2023-06-22T10:37:43;686.38;;;458.67;;
22103;SDS011;11218;48.886;9.426;2023-06-22T10:40:14;683.28;;;469.92;;
22103;SDS011;11218;48.886;9.426;2023-06-22T10:42:46;691.85;;;473.48;;
22103;SDS011;11218;48.886;9.426;2023-06-22T10:45:14;689.78;;;470.52;;
22103;SDS011;11218;48.886;9.426;2023-06-22T10:47:42;691.47;;;472.30;;
22103;SDS011;11218;48.886;9.426;2023-06-22T10:50:10;696.50;;;484.23;;
22103;SDS011;11218;48.886;9.426;2023-06-22T10:52:39;698.00;;;495.83;;
22103;SDS011;11218;48.886;9.426;2023-06-22T10:55:09;698.58;;;497.27;;
22103;SDS011;11218;48.886;9.426;2023-06-22T10:57:39;700.47;;;487.67;;
22103;SDS011;11218;48.886;9.426;2023-06-22T11:00:10;702.17;;;496.30;;
22103;SDS011;11218;48.886;9.426;2023-06-22T11:02:39;691.45;;;477.17;;
22103;SDS011;11218;48.886;9.426;2023-06-22T11:05:08;686.25;;;474.08;;
22103;SDS011;11218;48.886;9.426;2023-06-22T11:07:37;698.92;;;486.48;;
22103;SDS011;11218;48.886;9.426;2023-06-22T11:10:05;707.30;;;492.05;;
22103;SDS011;11218;48.886;9.426;2023-06-22T11:12:34;699.83;;;482.92;;
22103;SDS011;11218;48.886;9.426;2023-06-22T11:15:05;696.70;;;479.73;;
22103;SDS011;11218;48.886;9.426;2023-06-22T11:17:34;708.13;;;499.60;;
22103;SDS011;11218;48.886;9.426;2023-06-22T11:20:02;706.97;;;489.90;;
22103;SDS011;11218;48.886;9.426;2023-06-22T11:22:36;703.10;;;486.80;;
22103;SDS011;11218;48.886;9.426;2023-06-22T11:25:06;711.35;;;501.17;;
22103;SDS011;11218;48.886;9.426;2023-06-22T11:27:35;704.72;;;483.27;;
22103;SDS011;11218;48.886;9.426;2023-06-22T11:30:05;701.70;;;494.33;;
22103;SDS011;11218;48.886;9.426;2023-06-22T11:32:34;700.40;;;485.17;;
22103;SDS011;11218;48.886;9.426;2023-06-22T11:35:03;703.70;;;480.58;;
22103;SDS011;11218;48.886;9.426;2023-06-22T11:37:31;701.40;;;489.17;;
22103;SDS011;11218;48.886;9.426;2023-06-22T11:40:00;697.28;;;475.45;;
22103;SDS011;11218;48.886;9.426;2023-06-22T11:42:33;696.38;;;481.92;;
22103;SDS011;11218;48.886;9.426;2023-06-22T11:45:01;695.85;;;485.45;;
22103;SDS011;11218;48.886;9.426;2023-06-22T11:47:32;692.42;;;474.95;;
22103;SDS011;11218;48.886;9.426;2023-06-22T11:50:01;704.47;;;481.38;;
22103;SDS011;11218;48.886;9.426;2023-06-22T11:52:29;698.42;;;484.70;;
22103;SDS011;11218;48.886;9.426;2023-06-22T11:54:57;694.75;;;474.88;;
22103;SDS011;11218;48.886;9.426;2023-06-22T11:57:29;689.75;;;483.58;;
22103;SDS011;11218;48.886;9.426;2023-06-22T11:59:57;695.45;;;485.58;;
22103;SDS011;11218;48.886;9.426;2023-06-22T12:02:25;690.33;;;483.25;;
22103;SDS011;11218;48.886;9.426;2023-06-22T12:04:55;699.40;;;492.33;;
22103;SDS011;11218;48.886;9.426;2023-06-22T12:07:24;696.95;;;492.27;;
22103;SDS011;11218;48.886;9.426;2023-06-22T12:09:52;695.60;;;490.88;;
22103;SDS011;11218;48.886;9.426;2023-06-22T12:12:20;699.10;;;496.60;;
22103;SDS011;11218;48.886;9.426;2023-06-22T12:14:48;691.75;;;486.00;;
22103;SDS011;11218;48.886;9.426;2023-06-22T12:17:16;694.90;;;483.33;;
22103;SDS011;11218;48.886;9.426;2023-06-22T12:19:45;695.55;;;480.88;;
22103;SDS011;11218;48.886;9.426;2023-06-22T12:22:14;695.63;;;493.05;;
22103;SDS011;11218;48.886;9.426;2023-06-22T12:24:42;692.95;;;485.65;;
22103;SDS011;11218;48.886;9.426;2023-06-22T12:27:10;702.38;;;488.17;;
22103;SDS011;11218;48.886;9.426;2023-06-22T12:29:39;706.67;;;513.58;;
22103;SDS011;11218;48.886;9.426;2023-06-22T12:32:07;705.40;;;505.33;;
22103;SDS011;11218;48.886;9.426;2023-06-22T12:34:35;702.60;;;496.38;;
22103;SDS011;11218;48.886;9.426;2023-06-22T12:37:03;705.33;;;501.67;;
22103;SDS011;11218;48.886;9.426;2023-06-22T12:39:33;695.88;;;490.45;;
22103;SDS011;11218;48.886;9.426;2023-06-22T12:42:02;676.42;;;460.98;;
22103;SDS011;11218;48.886;9.426;2023-06-22T12:44:30;620.72;;;398.17;;
22103;SDS011;11218;48.886;9.426;2023-06-22T12:46:58;683.92;;;467.67;;
22103;SDS011;11218;48.886;9.426;2023-06-22T12:49:26;698.40;;;491.10;;
22103;SDS011;11218;48.886;9.426;2023-06-22T12:51:54;691.15;;;479.27;;
22103;SDS011;11218;48.886;9.426;2023-06-22T12:54:22;691.67;;;468.92;;
22103;SDS011;11218;48.886;9.426;2023-06-22T12:56:53;699.60;;;481.13;;
22103;SDS011;11218;48.886;9.426;2023-06-22T12:59:21;694.38;;;480.27;;
22103;SDS011;11218;48.886;9.426;2023-06-22T13:01:50;704.15;;;492.02;;
22103;SDS011;11218;48.886;9.426;2023-06-22T13:04:18;696.92;;;483.42;;
22103;SDS011;11218;48.886;9.426;2023-06-22T13:06:46;688.50;;;480.10;;
22103;SDS011;11218;48.886;9.426;2023-06-22T13:09:18;702.05;;;473.80;;
22103;SDS011;11218;48.886;9.426;2023-06-22T13:11:47;693.28;;;469.48;;
22103;SDS011;11218;48.886;9.426;2023-06-22T13:14:17;700.17;;;473.67;;
22103;SDS011;11218;48.886;9.426;2023-06-22T13:16:45;690.35;;;466.52;;
22103;SDS011;11218;48.886;9.426;2023-06-22T13:19:13;695.00;;;470.13;;
22103;SDS011;11218;48.886;9.426;2023-06-22T13:21:41;705.58;;;484.40;;
22103;SDS011;11218;48.886;9.426;2023-06-22T13:24:10;698.03;;;461.95;;
22103;SDS011;11218;48.886;9.426;2023-06-22T13:26:38;703.85;;;488.45;;
22103;SDS011;11218;48.886;9.426;2023-06-22T13:29:06;707.85;;;487.92;;
22103;SDS011;11218;48.886;9.426;2023-06-22T13:31:36;699.80;;;484.98;;
22103;SDS011;11218;48.886;9.426;2023-06-22T13:34:05;710.40;;;488.08;;
22103;SDS011;11218;48.886;9.426;2023-06-22T13:36:33;700.00;;;483.05;;
22103;SDS011;11218;48.886;9.426;2023-06-22T13:39:01;710.97;;;493.90;;
22103;SDS011;11218;48.886;9.426;2023-06-22T13:41:31;707.13;;;485.40;;
22103;SDS011;11218;48.886;9.426;2023-06-22T13:43:59;705.78;;;482.48;;
22103;SDS011;11218;48.886;9.426;2023-06-22T13:46:27;711.10;;;492.60;;
22103;SDS011;11218;48.886;9.426;2023-06-22T13:48:57;703.97;;;478.13;;
22103;SDS011;11218;48.886;9.426;2023-06-22T13:51:25;685.40;;;455.33;;
22103;SDS011;11218;48.886;9.426;2023-06-22T13:53:53;694.47;;;478.80;;
22103;SDS011;11218;48.886;9.426;2023-06-22T13:56:21;716.95;;;484.00;;
22103;SDS011;11218;48.886;9.426;2023-06-22T13:58:49;701.78;;;474.08;;
22103;SDS011;11218;48.886;9.426;2023-06-22T14:01:17;704.88;;;474.77;;
22103;SDS011;11218;48.886;9.426;2023-06-22T14:03:46;702.95;;;479.70;;
22103;SDS011;11218;48.886;9.426;2023-06-22T14:06:17;702.95;;;489.52;;
22103;SDS011;11218;48.886;9.426;2023-06-22T14:08:45;707.22;;;489.80;;